createdAt,value
2023-03-14T00:00:20.602Z,8.10
2023-03-14T00:02:57.253Z,8.30
2023-03-14T00:05:29.175Z,8.60
2023-03-14T00:08:00.959Z,8.60
2023-03-14T00:10:32.064Z,8.70
2023-03-14T00:13:03.700Z,8.80
2023-03-14T00:15:37.882Z,8.80
2023-03-14T00:18:10.898Z,8.60
2023-03-14T00:20:41.631Z,8.50
2023-03-14T00:23:13.050Z,8.60
2023-03-14T00:25:44.800Z,8.80
2023-03-14T00:28:15.848Z,8.80
2023-03-14T00:30:48.587Z,9.00
2023-03-14T00:33:19.956Z,8.80
2023-03-14T00:35:58.656Z,8.70
2023-03-14T00:38:30.157Z,8.40
2023-03-14T00:41:01.335Z,8.30
2023-03-14T00:43:33.063Z,8.40
2023-03-14T00:46:06.452Z,8.40
2023-03-14T00:48:38.640Z,8.20
2023-03-14T00:51:11.411Z,8.00
2023-03-14T00:53:44.376Z,7.90
2023-03-14T00:56:18.428Z,7.50
2023-03-14T00:58:50.013Z,7.40
2023-03-14T01:01:24.275Z,7.30
2023-03-14T01:03:57.845Z,7.30
2023-03-14T01:06:30.610Z,7.20
2023-03-14T01:09:03.403Z,7.20
2023-03-14T01:11:37.263Z,7.20
2023-03-14T01:14:08.940Z,7.10
2023-03-14T01:16:42.066Z,7.00
2023-03-14T01:19:14.220Z,7.10
2023-03-14T01:21:46.268Z,7.00
2023-03-14T01:24:17.808Z,6.90
2023-03-14T01:26:49.499Z,6.90
2023-03-14T01:29:20.936Z,6.80
2023-03-14T01:31:54.992Z,6.80
2023-03-14T01:34:26.770Z,6.70
2023-03-14T01:36:58.070Z,6.60
2023-03-14T01:39:30.418Z,6.60
2023-03-14T01:42:01.473Z,6.60
2023-03-14T01:44:32.494Z,6.60
2023-03-14T01:47:05.737Z,6.50
2023-03-14T01:49:42.438Z,6.50
2023-03-14T01:52:21.551Z,6.40
2023-03-14T01:55:01.715Z,6.40
2023-03-14T01:57:40.065Z,6.50
2023-03-14T02:08:16.880Z,6.40
2023-03-14T02:10:51.314Z,6.50
2023-03-14T02:13:28.145Z,6.50
2023-03-14T02:15:59.615Z,6.50
2023-03-14T02:18:31.526Z,6.40
2023-03-14T02:21:10.689Z,6.40
2023-03-14T02:23:51.749Z,6.40
2023-03-14T02:26:28.052Z,6.40
2023-03-14T02:29:04.163Z,6.40
2023-03-14T02:31:35.595Z,6.40
2023-03-14T02:34:08.012Z,6.30
2023-03-14T02:36:39.717Z,6.30
2023-03-14T02:39:17.877Z,6.30
2023-03-14T02:41:51.664Z,6.30
2023-03-14T02:44:25.692Z,6.20
2023-03-14T02:46:56.950Z,6.10
2023-03-14T02:49:30.847Z,6.10
2023-03-14T02:52:02.207Z,6.00
2023-03-14T02:54:33.383Z,6.00
2023-03-14T02:57:04.868Z,5.90
2023-03-14T02:59:37.906Z,5.80
2023-03-14T03:02:12.337Z,5.80
2023-03-14T03:04:44.680Z,5.80
2023-03-14T03:07:17.028Z,5.70
2023-03-14T03:09:48.535Z,5.60
2023-03-14T03:20:22.860Z,5.50
2023-03-14T03:22:54.401Z,5.50
2023-03-14T03:25:27.117Z,5.40
2023-03-14T03:27:58.280Z,5.40
2023-03-14T03:30:29.060Z,5.40
2023-03-14T03:33:00.354Z,5.40
2023-03-14T03:35:34.366Z,5.40
2023-03-14T03:38:05.963Z,5.30
2023-03-14T03:40:37.545Z,5.30
2023-03-14T03:43:09.032Z,5.20
2023-03-14T03:45:41.196Z,5.20
2023-03-14T03:48:17.674Z,5.20
2023-03-14T03:50:56.617Z,5.20
2023-03-14T03:53:33.700Z,5.10
2023-03-14T03:56:05.638Z,5.10
2023-03-14T03:58:37.163Z,5.10
2023-03-14T04:01:09.561Z,5.10
2023-03-14T04:03:42.621Z,5.10
2023-03-14T04:06:17.704Z,5.00
2023-03-14T04:08:49.073Z,5.00
2023-03-14T04:11:21.439Z,5.00
2023-03-14T04:13:53.221Z,4.90
2023-03-14T04:16:26.098Z,4.90
2023-03-14T04:18:57.347Z,4.90
2023-03-14T04:21:31.394Z,4.80
2023-03-14T04:24:02.934Z,4.80
2023-03-14T04:26:34.507Z,4.80
2023-03-14T04:29:06.309Z,4.80
2023-03-14T04:31:37.783Z,4.70
2023-03-14T04:34:10.102Z,4.70
2023-03-14T04:36:44.722Z,4.70
2023-03-14T04:39:17.385Z,4.60
2023-03-14T04:41:50.393Z,4.60
2023-03-14T04:44:22.388Z,4.60
2023-03-14T04:46:54.044Z,4.50
2023-03-14T04:49:25.480Z,4.50
2023-03-14T04:51:59.522Z,4.50
2023-03-14T04:54:32.881Z,4.50
2023-03-14T04:57:04.274Z,4.50
2023-03-14T04:59:35.729Z,4.40
2023-03-14T05:02:08.974Z,4.40
2023-03-14T05:04:41.099Z,4.40
2023-03-14T05:07:15.689Z,4.40
2023-03-14T05:09:47.610Z,4.40
2023-03-14T05:12:18.988Z,4.40
2023-03-14T05:14:50.884Z,4.40
2023-03-14T05:17:22.551Z,4.40
2023-03-14T05:19:54.449Z,4.40
2023-03-14T05:22:27.986Z,4.30
2023-03-14T05:25:01.065Z,4.30
2023-03-14T05:27:32.442Z,4.30
2023-03-14T05:30:06.655Z,4.20
2023-03-14T05:32:38.218Z,4.20
2023-03-14T05:35:10.120Z,4.10
2023-03-14T05:37:44.137Z,4.10
2023-03-14T05:40:16.369Z,4.10
2023-03-14T05:42:49.269Z,4.10
2023-03-14T05:45:24.456Z,4.00
2023-03-14T05:47:55.998Z,4.00
2023-03-14T05:50:28.438Z,4.10
2023-03-14T05:53:02.948Z,4.00
2023-03-14T05:55:36.132Z,4.10
2023-03-14T05:58:10.976Z,4.10
2023-03-14T06:00:43.400Z,4.10
2023-03-14T06:03:16.440Z,4.10
2023-03-14T06:05:48.066Z,4.10
2023-03-14T06:08:22.383Z,4.10
2023-03-14T06:10:57.023Z,4.10
2023-03-14T06:13:28.994Z,4.10
2023-03-14T06:16:00.694Z,4.00
2023-03-14T06:18:32.687Z,3.90
2023-03-14T06:21:05.363Z,3.90
2023-03-14T06:23:39.774Z,3.80
2023-03-14T06:26:12.942Z,3.80
2023-03-14T06:28:48.338Z,3.70
2023-03-14T06:31:23.277Z,3.70
2023-03-14T06:33:55.694Z,3.60
2023-03-14T06:36:29.344Z,3.60
2023-03-14T06:39:05.277Z,3.50
2023-03-14T06:41:36.958Z,3.50
2023-03-14T06:44:09.658Z,3.50
2023-03-14T06:46:41.924Z,3.50
2023-03-14T06:49:14.225Z,3.40
2023-03-14T06:51:46.897Z,3.50
2023-03-14T06:54:24.705Z,3.40
2023-03-14T06:56:56.993Z,3.40
2023-03-14T06:59:31.268Z,3.50
2023-03-14T07:02:03.580Z,3.50
2023-03-14T07:04:36.726Z,3.50
2023-03-14T07:07:08.020Z,3.50
2023-03-14T07:09:44.306Z,3.50
2023-03-14T07:12:19.169Z,3.40
2023-03-14T07:14:51.501Z,3.40
2023-03-14T07:17:23.555Z,3.40
2023-03-14T07:19:55.758Z,3.40
2023-03-14T07:22:27.494Z,3.30
2023-03-14T07:25:02.295Z,3.40
2023-03-14T07:27:35.214Z,3.30
2023-03-14T07:30:07.408Z,3.30
2023-03-14T07:32:39.183Z,3.30
2023-03-14T07:35:13.790Z,3.40
2023-03-14T07:37:45.716Z,3.40
2023-03-14T07:40:21.254Z,3.40
2023-03-14T07:42:52.978Z,3.40
2023-03-14T07:45:25.253Z,3.50
2023-03-14T07:47:59.663Z,3.50
2023-03-14T07:50:32.013Z,3.40
2023-03-14T07:53:06.128Z,3.40
2023-03-14T07:55:40.102Z,3.40
2023-03-14T07:58:12.392Z,3.40
2023-03-14T08:00:44.500Z,3.40
2023-03-14T08:03:16.226Z,3.40
2023-03-14T08:05:48.068Z,3.40
2023-03-14T08:08:19.465Z,3.40
2023-03-14T08:10:53.233Z,3.50
2023-03-14T08:13:26.000Z,3.40
2023-03-14T08:16:00.582Z,3.50
2023-03-14T08:18:33.403Z,3.50
2023-03-14T08:21:05.028Z,3.50
2023-03-14T08:23:36.801Z,3.60
2023-03-14T08:26:11.384Z,3.50
2023-03-14T08:28:43.243Z,3.50
2023-03-14T08:31:15.742Z,3.50
2023-03-14T08:33:47.931Z,3.50
2023-03-14T08:36:22.452Z,3.50
2023-03-14T08:38:56.395Z,3.50
2023-03-14T08:41:30.935Z,3.50
2023-03-14T08:44:02.745Z,3.60
2023-03-14T08:46:34.826Z,3.50
2023-03-14T08:49:06.298Z,3.50
2023-03-14T08:51:38.504Z,3.50
2023-03-14T08:54:10.302Z,3.50
2023-03-14T08:56:47.187Z,3.50
2023-03-14T08:59:20.240Z,3.50
2023-03-14T09:01:51.774Z,3.40
2023-03-14T09:04:23.476Z,3.40
2023-03-14T09:06:55.180Z,3.40
2023-03-14T09:09:27.596Z,3.30
2023-03-14T09:12:02.291Z,3.30
2023-03-14T09:14:34.244Z,3.30
2023-03-14T09:17:06.072Z,3.30
2023-03-14T09:19:38.029Z,3.40
2023-03-14T09:22:09.612Z,3.30
2023-03-14T09:24:41.804Z,3.20
2023-03-14T09:27:14.703Z,3.20
2023-03-14T09:29:46.852Z,3.20
2023-03-14T09:32:18.296Z,3.20
2023-03-14T09:34:50.285Z,3.20
2023-03-14T09:37:22.196Z,3.20
2023-03-14T09:39:53.856Z,3.20
2023-03-14T09:42:31.409Z,3.10
2023-03-14T09:45:06.584Z,3.10
2023-03-14T09:47:46.400Z,3.10
2023-03-14T09:50:25.333Z,3.20
2023-03-14T09:53:03.199Z,3.10
2023-03-14T09:55:37.081Z,3.20
2023-03-14T09:58:16.243Z,3.30
2023-03-14T10:00:48.519Z,3.30
2023-03-14T10:03:33.964Z,3.40
2023-03-14T10:06:07.110Z,3.40
2023-03-14T10:08:38.904Z,3.40
2023-03-14T10:11:11.909Z,3.40
2023-03-14T10:13:53.130Z,3.50
2023-03-14T10:16:34.775Z,3.50
2023-03-14T10:19:14.443Z,3.40
2023-03-14T10:21:47.864Z,3.40
2023-03-14T10:24:27.569Z,3.40
2023-03-14T10:27:03.253Z,3.30
2023-03-14T10:29:38.657Z,3.20
2023-03-14T10:32:11.948Z,3.20
2023-03-14T10:34:43.990Z,3.30
2023-03-14T10:37:28.294Z,3.20
2023-03-14T10:40:07.554Z,3.20
2023-03-14T10:42:44.314Z,3.20
2023-03-14T10:45:35.114Z,3.20
2023-03-14T10:48:26.928Z,3.10
2023-03-14T10:51:06.938Z,3.10
2023-03-14T10:53:51.055Z,3.10
2023-03-14T10:56:24.885Z,3.10
2023-03-14T10:58:58.374Z,3.10
2023-03-14T11:01:41.989Z,3.10
2023-03-14T11:04:26.850Z,3.10
2023-03-14T11:07:08.395Z,3.20
2023-03-14T11:09:47.141Z,3.20
2023-03-14T11:12:43.738Z,3.20
2023-03-14T11:15:23.058Z,3.20
2023-03-14T11:18:10.602Z,3.20
2023-03-14T11:20:50.444Z,3.20
2023-03-14T11:23:27.802Z,3.20
2023-03-14T11:26:07.306Z,3.30
2023-03-14T11:28:43.053Z,3.30
2023-03-14T11:31:23.435Z,3.20
2023-03-14T11:34:04.720Z,3.30
2023-03-14T11:36:42.505Z,3.30
2023-03-14T11:39:20.208Z,3.20
2023-03-14T11:41:55.254Z,3.30
2023-03-14T11:44:32.318Z,3.20
2023-03-14T11:47:10.452Z,3.20
2023-03-14T11:49:49.437Z,3.20
2023-03-14T11:52:27.126Z,3.20
2023-03-14T11:55:03.347Z,3.20
2023-03-14T11:57:37.214Z,3.20
2023-03-14T12:00:19.171Z,3.10
2023-03-14T12:02:57.893Z,3.20
2023-03-14T12:05:55.803Z,3.20
2023-03-14T12:08:52.829Z,3.10
2023-03-14T12:11:32.568Z,3.10
2023-03-14T12:14:04.571Z,3.20
2023-03-14T12:16:41.596Z,3.20
2023-03-14T12:19:43.238Z,3.20
2023-03-14T12:22:28.749Z,3.20
2023-03-14T12:25:05.627Z,3.20
2023-03-14T12:27:52.910Z,3.20
2023-03-14T12:30:33.439Z,3.30
2023-03-14T12:33:37.079Z,3.20
2023-03-14T12:36:16.903Z,3.30
2023-03-14T12:39:15.102Z,3.30
2023-03-14T12:41:49.550Z,3.30
2023-03-14T12:44:45.854Z,3.40
2023-03-14T12:47:48.065Z,3.40
2023-03-14T12:50:26.190Z,3.50
2023-03-14T12:53:26.234Z,3.50
2023-03-14T12:56:07.501Z,3.60
2023-03-14T12:58:45.238Z,3.60
2023-03-14T13:01:23.115Z,3.60
2023-03-14T13:03:57.175Z,3.60
2023-03-14T13:06:51.584Z,3.60
2023-03-14T13:09:54.398Z,3.50
2023-03-14T13:12:34.462Z,3.50
2023-03-14T13:15:09.823Z,3.50
2023-03-14T13:17:44.409Z,3.50
2023-03-14T13:20:21.041Z,3.40
2023-03-14T13:22:54.156Z,3.50
2023-03-14T13:25:25.713Z,3.40
2023-03-14T13:28:00.380Z,3.40
2023-03-14T13:30:33.525Z,3.40
2023-03-14T13:33:09.726Z,3.40
2023-03-14T13:35:46.498Z,3.40
2023-03-14T13:38:25.316Z,3.40
2023-03-14T13:41:03.239Z,3.40
2023-03-14T13:43:38.800Z,3.40
2023-03-14T13:46:15.713Z,3.30
2023-03-14T13:48:52.430Z,3.30
2023-03-14T13:51:27.126Z,3.40
2023-03-14T13:54:02.059Z,3.40
2023-03-14T13:56:35.698Z,3.30
2023-03-14T13:59:09.855Z,3.30
2023-03-14T14:01:44.162Z,3.30
2023-03-14T14:04:21.777Z,3.30
2023-03-14T14:06:56.982Z,3.20
2023-03-14T14:09:29.900Z,3.20
2023-03-14T14:12:15.394Z,3.10
2023-03-14T14:14:55.884Z,3.10
2023-03-14T14:17:32.765Z,3.00
2023-03-14T14:20:07.564Z,3.00
2023-03-14T14:22:40.571Z,2.90
2023-03-14T14:25:17.611Z,2.90
2023-03-14T14:27:54.047Z,2.80
2023-03-14T14:30:37.004Z,2.80
2023-03-14T14:33:23.191Z,2.80
2023-03-14T14:36:00.866Z,2.80
2023-03-14T14:38:32.630Z,2.70
2023-03-14T14:41:06.679Z,2.70
2023-03-14T14:43:47.906Z,2.60
2023-03-14T14:46:24.815Z,2.50
2023-03-14T14:49:01.220Z,2.50
2023-03-14T14:51:37.891Z,2.50
2023-03-14T14:54:16.901Z,2.50
2023-03-14T14:56:53.282Z,2.50
2023-03-14T14:59:30.066Z,2.50
2023-03-14T15:02:05.379Z,2.60
2023-03-14T15:04:36.773Z,2.60
2023-03-14T15:07:09.047Z,2.70
2023-03-14T15:09:40.677Z,2.70
2023-03-14T15:12:12.431Z,2.70
2023-03-14T15:14:43.886Z,2.80
2023-03-14T15:17:18.391Z,2.90
2023-03-14T15:19:49.817Z,3.00
2023-03-14T15:22:22.918Z,3.10
2023-03-14T15:24:54.529Z,3.20
2023-03-14T15:27:25.992Z,3.30
2023-03-14T15:29:57.412Z,3.40
2023-03-14T15:32:31.441Z,3.40
2023-03-14T15:35:02.884Z,3.50
2023-03-14T15:37:34.640Z,3.60
2023-03-14T15:40:13.856Z,3.70
2023-03-14T15:42:45.562Z,3.80
2023-03-14T15:45:17.261Z,3.90
2023-03-14T15:47:51.359Z,4.10
2023-03-14T15:50:23.621Z,4.20
2023-03-14T15:52:55.369Z,4.30
2023-03-14T15:55:28.315Z,4.40
2023-03-14T15:58:01.085Z,4.50
2023-03-14T16:00:34.088Z,4.60
2023-03-14T16:03:07.539Z,4.60
2023-03-14T16:05:39.200Z,4.70
2023-03-14T16:08:10.810Z,4.80
2023-03-14T16:10:43.867Z,4.90
2023-03-14T16:13:15.959Z,4.90
2023-03-14T16:15:56.539Z,5.00
2023-03-14T16:18:33.032Z,5.10
2023-03-14T16:21:06.538Z,5.00
2023-03-14T16:23:39.904Z,5.10
2023-03-14T16:26:12.363Z,5.20
2023-03-14T16:28:45.220Z,5.20
2023-03-14T16:31:20.378Z,5.20
2023-03-14T16:33:54.868Z,5.20
2023-03-14T16:36:26.437Z,5.30
2023-03-14T16:38:58.318Z,5.40
2023-03-14T16:41:32.522Z,5.50
2023-03-14T16:44:05.141Z,5.60
2023-03-14T16:46:38.090Z,5.70
2023-03-14T16:49:12.353Z,5.80
2023-03-14T16:51:44.260Z,5.90
2023-03-14T16:54:15.696Z,5.80
2023-03-14T16:56:49.005Z,5.90
2023-03-14T16:59:21.240Z,6.00
2023-03-14T17:01:53.191Z,6.10
2023-03-14T17:04:27.087Z,6.10
2023-03-14T17:06:58.923Z,6.10
2023-03-14T17:09:32.750Z,6.20
2023-03-14T17:12:04.179Z,6.30
2023-03-14T17:14:35.650Z,6.30
2023-03-14T17:17:07.819Z,6.30
2023-03-14T17:19:42.524Z,6.40
2023-03-14T17:22:23.365Z,6.50
2023-03-14T17:24:56.672Z,6.60
2023-03-14T17:27:28.116Z,6.60
2023-03-14T17:30:00.007Z,6.60
2023-03-14T17:32:32.645Z,6.50
2023-03-14T17:35:07.942Z,6.60
2023-03-14T17:37:39.784Z,6.80
2023-03-14T17:40:12.770Z,6.90
2023-03-14T17:42:44.147Z,6.90
2023-03-14T17:45:16.294Z,7.00
2023-03-14T17:47:49.392Z,7.20
2023-03-14T17:50:22.954Z,7.40
2023-03-14T17:52:54.727Z,7.60
2023-03-14T17:55:26.385Z,7.60
2023-03-14T17:57:57.829Z,7.60
2023-03-14T18:00:30.105Z,7.80
2023-03-14T18:03:02.470Z,7.90
2023-03-14T18:05:35.841Z,7.80
2023-03-14T18:08:07.736Z,7.70
2023-03-14T18:10:39.525Z,7.80
2023-03-14T18:13:11.945Z,7.90
2023-03-14T18:15:43.464Z,8.00
2023-03-14T18:18:15.636Z,8.10
2023-03-14T18:20:52.692Z,8.10
2023-03-14T18:23:24.794Z,8.00
2023-03-14T18:25:55.673Z,7.90
2023-03-14T18:28:26.970Z,7.90
2023-03-14T18:31:03.877Z,8.00
2023-03-14T18:33:39.190Z,8.10
2023-03-14T18:36:12.908Z,8.10
2023-03-14T18:38:44.406Z,7.90
2023-03-14T18:41:17.999Z,7.80
2023-03-14T18:43:51.373Z,7.90
2023-03-14T18:46:25.741Z,8.10
2023-03-14T18:48:58.607Z,8.30
2023-03-14T18:51:33.226Z,8.30
2023-03-14T18:54:10.009Z,8.40
2023-03-14T18:56:42.208Z,8.10
2023-03-14T18:59:14.216Z,8.00
2023-03-14T19:01:45.089Z,8.10
2023-03-14T19:04:15.825Z,7.90
2023-03-14T19:06:48.631Z,8.00
2023-03-14T19:09:20.327Z,8.10
2023-03-14T19:11:51.028Z,8.20
2023-03-14T19:14:22.430Z,8.30
2023-03-14T19:16:53.312Z,8.20
2023-03-14T19:19:24.114Z,8.10
2023-03-14T19:21:58.384Z,7.90
2023-03-14T19:24:32.443Z,8.10
2023-03-14T19:27:04.380Z,8.30
2023-03-14T19:29:40.423Z,8.20
2023-03-14T19:32:11.941Z,8.30
2023-03-14T19:34:45.301Z,8.10
2023-03-14T19:37:19.831Z,7.90
2023-03-14T19:39:53.127Z,7.90
2023-03-14T19:42:24.626Z,8.00
2023-03-14T19:44:57.540Z,8.10
2023-03-14T19:47:29.050Z,8.20
2023-03-14T19:50:01.694Z,8.20
2023-03-14T19:52:37.477Z,8.20
2023-03-14T19:55:09.535Z,8.10
2023-03-14T19:57:41.126Z,8.20
2023-03-14T20:00:17.878Z,8.10
2023-03-14T20:02:50.260Z,8.30
2023-03-14T20:05:22.190Z,8.40
2023-03-14T20:07:57.571Z,8.50
2023-03-14T20:10:29.599Z,8.30
2023-03-14T20:13:11.861Z,8.30
2023-03-14T20:15:46.700Z,8.30
2023-03-14T20:18:18.474Z,8.50
2023-03-14T20:20:49.984Z,8.60
2023-03-14T20:23:23.627Z,8.70
2023-03-14T20:25:58.591Z,8.70
2023-03-14T20:28:30.567Z,8.50
2023-03-14T20:31:02.209Z,8.60
2023-03-14T20:33:35.637Z,8.80
2023-03-14T20:36:07.855Z,8.90
2023-03-14T20:38:42.619Z,9.00
2023-03-14T20:41:13.826Z,9.10
2023-03-14T20:43:45.769Z,9.20
2023-03-14T20:46:19.190Z,9.00
2023-03-14T20:48:51.213Z,9.10
2023-03-14T20:51:22.759Z,9.20
2023-03-14T20:53:55.940Z,9.30
2023-03-14T20:56:26.931Z,9.40
2023-03-14T20:58:57.887Z,9.40
2023-03-14T21:04:16.014Z,9.50
2023-03-14T21:06:46.966Z,9.60
2023-03-14T21:09:19.385Z,9.70
2023-03-14T21:11:49.965Z,9.80
2023-03-14T21:14:23.127Z,9.90
2023-03-14T21:16:56.322Z,10.00
2023-03-14T21:19:31.409Z,9.90
2023-03-14T21:22:03.487Z,9.90
2023-03-14T21:24:36.656Z,10.10
2023-03-14T21:27:08.331Z,10.30
2023-03-14T21:29:39.104Z,10.20
2023-03-14T21:32:11.443Z,10.30
2023-03-14T21:34:43.043Z,10.40
2023-03-14T21:37:13.902Z,10.50
2023-03-14T21:39:47.151Z,10.50
2023-03-14T21:42:18.397Z,10.50
2023-03-14T21:44:49.823Z,10.60
2023-03-14T21:47:24.131Z,10.60
2023-03-14T21:49:55.730Z,10.70
2023-03-14T21:52:26.933Z,10.70
2023-03-14T21:54:59.671Z,10.70
2023-03-14T21:57:30.724Z,10.80
2023-03-14T22:00:01.353Z,11.00
2023-03-14T22:02:32.397Z,11.10
2023-03-14T22:05:03.150Z,10.80
2023-03-14T22:07:33.834Z,11.00
2023-03-14T22:10:06.822Z,11.20
2023-03-14T22:12:38.014Z,11.20
2023-03-14T22:15:11.432Z,11.10
2023-03-14T22:17:42.978Z,11.30
2023-03-14T22:20:14.975Z,11.70
2023-03-14T22:22:45.568Z,11.80
2023-03-14T22:25:18.132Z,11.50
2023-03-14T22:27:49.809Z,11.30
2023-03-14T22:30:20.691Z,11.50
2023-03-14T22:32:51.591Z,11.50
2023-03-14T22:35:22.704Z,11.70
2023-03-14T22:37:53.360Z,11.90
2023-03-14T22:40:25.662Z,11.70
2023-03-14T22:42:57.616Z,11.70
2023-03-14T22:45:29.241Z,11.90
2023-03-14T22:48:00.752Z,11.90
2023-03-14T22:50:31.438Z,11.90
2023-03-14T22:53:02.100Z,12.00
2023-03-14T22:55:34.769Z,12.30
2023-03-14T22:58:05.746Z,12.50
2023-03-14T23:00:36.914Z,12.70
2023-03-14T23:03:09.177Z,12.90
2023-03-14T23:05:40.454Z,13.00
2023-03-14T23:08:11.307Z,13.00
2023-03-14T23:10:44.162Z,12.90
2023-03-14T23:13:15.459Z,12.80
2023-03-14T23:15:49.067Z,12.60
2023-03-14T23:18:20.389Z,12.30
2023-03-14T23:20:52.092Z,12.30
2023-03-14T23:23:26.640Z,12.40
2023-03-14T23:26:01.088Z,12.60
2023-03-14T23:28:32.217Z,12.10
2023-03-14T23:31:07.223Z,12.10
2023-03-14T23:33:41.374Z,12.00
2023-03-14T23:36:16.880Z,11.50
2023-03-14T23:38:48.961Z,11.20
2023-03-14T23:41:21.254Z,11.10
2023-03-14T23:43:52.264Z,11.20
2023-03-14T23:46:23.261Z,11.20
2023-03-14T23:48:55.679Z,11.20
2023-03-14T23:51:26.992Z,10.90
2023-03-14T23:53:57.653Z,10.50
2023-03-14T23:56:30.157Z,10.40
2023-03-14T23:59:01.383Z,10.50
